Time;durP1;ratioP1;P1;durP2;ratioP2;P2;SDS_P1;SDS_P2;PMS_P1;PMS_P2;Temp;Humidity;BMP_temperature;BMP_pressure;BME280_temperature;BME280_humidity;BME280_pressure;Samples;Min_cycle;Max_cycle;Signal;HPM_P1;HPM_P2
2022/06/26 00:01:32;;;;;;;;;;;17.50;99.90;;;;;;5102524;28;19920;-79
2022/06/26 00:04:00;;;;;;;;;;;17.50;99.90;;;;;;5112653;28;20412;-78
2022/06/26 00:06:26;;;;;;;;;;;17.40;99.90;;;;;;5127905;27;20018;-79
2022/06/26 00:08:52;;;;;;;;;;;17.40;99.90;;;;;;5106463;28;20007;-78
2022/06/26 00:11:17;;;;;;;;;;;17.40;99.90;;;;;;5075842;28;20414;-80
2022/06/26 00:13:43;;;;;;;;;;;17.50;99.90;;;;;;5112209;28;19920;-79
2022/06/26 00:16:09;;;;;;;;;;;17.50;99.90;;;;;;5107994;27;19924;-80
2022/06/26 00:18:34;;;;;;;;;;;17.50;99.90;;;;;;5113095;27;19924;-78
2022/06/26 00:21:00;;;;;;;;;;;17.50;99.90;;;;;;5106715;27;20010;-79
2022/06/26 00:23:25;;;;;;;;;;;17.50;99.90;;;;;;5131834;27;19919;-78
2022/06/26 00:25:51;;;;;;;;;;;17.50;99.90;;;;;;5120783;27;20428;-79
2022/06/26 00:28:17;;;;;;;;;;;17.50;99.90;;;;;;5111577;28;20014;-79
2022/06/26 00:30:43;;;;;;;;;;;17.50;99.90;;;;;;5094951;28;20262;-79
2022/06/26 00:33:08;;;;;;;;;;;17.50;99.90;;;;;;5094550;28;19919;-79
2022/06/26 00:35:34;;;;;;;;;;;17.40;99.90;;;;;;5111952;28;19928;-79
2022/06/26 00:38:04;;;;;;;;;;;17.50;99.90;;;;;;5111048;28;20377;-79
2022/06/26 00:40:29;;;;;;;;;;;17.40;99.90;;;;;;5111611;28;19920;-78
2022/06/26 00:42:58;;;;;;;;;;;17.40;99.90;;;;;;5125277;27;19919;-79
2022/06/26 00:45:23;;;;;;;;;;;17.40;99.90;;;;;;5130545;27;19926;-78
2022/06/26 00:47:49;;;;;;;;;;;17.40;99.90;;;;;;5119271;27;19927;-80
2022/06/26 00:50:21;;;;;;;;;;;17.30;99.90;;;;;;5112003;28;19926;-79
2022/06/26 00:52:47;;;;;;;;;;;17.30;99.90;;;;;;5110827;28;19924;-78
2022/06/26 00:55:13;;;;;;;;;;;17.20;99.90;;;;;;5097227;27;20003;-78
2022/06/26 00:57:39;;;;;;;;;;;17.20;99.90;;;;;;5114161;28;19962;-79
2022/06/26 01:00:05;;;;;;;;;;;17.10;99.90;;;;;;5113197;27;19928;-78
2022/06/26 01:02:31;;;;;;;;;;;17.10;99.90;;;;;;5109468;28;20391;-79
2022/06/26 01:04:57;;;;;;;;;;;17.00;99.90;;;;;;5107865;28;19927;-79
2022/06/26 01:07:22;;;;;;;;;;;17.00;99.90;;;;;;5093324;28;19979;-79
2022/06/26 01:09:49;;;;;;;;;;;17.00;99.90;;;;;;5109595;28;19924;-78
2022/06/26 01:12:15;;;;;;;;;;;16.90;99.90;;;;;;5107547;28;20376;-79
2022/06/26 01:14:41;;;;;;;;;;;16.90;99.90;;;;;;5125536;28;19923;-79
2022/06/26 01:17:06;;;;;;;;;;;16.90;99.90;;;;;;5110940;28;19991;-79
2022/06/26 01:19:33;;;;;;;;;;;17.00;99.90;;;;;;5111923;28;19930;-79
2022/06/26 01:21:58;;;;;;;;;;;17.30;99.90;;;;;;5130701;28;19923;-79
2022/06/26 01:24:24;;;;;;;;;;;17.40;99.90;;;;;;5091009;28;20417;-78
2022/06/26 01:26:49;;;;;;;;;;;17.50;99.90;;;;;;5108782;28;19920;-78
2022/06/26 01:29:18;;;;;;;;;;;17.70;99.90;;;;;;5101755;28;19920;-79
2022/06/26 01:31:44;;;;;;;;;;;17.90;99.90;;;;;;5127982;28;20261;-79
2022/06/26 01:34:11;;;;;;;;;;;18.00;99.90;;;;;;5122654;28;19920;-80
2022/06/26 01:36:37;;;;;;;;;;;18.00;99.90;;;;;;5093485;28;19927;-78
2022/06/26 01:39:03;;;;;;;;;;;18.10;99.90;;;;;;5112256;28;20007;-79
2022/06/26 01:41:28;;;;;;;;;;;18.20;99.90;;;;;;5111288;28;20474;-79
2022/06/26 01:43:54;;;;;;;;;;;18.10;99.90;;;;;;5105240;28;20032;-79
2022/06/26 01:46:22;;;;;;;;;;;18.10;99.90;;;;;;5101962;28;20384;-79
2022/06/26 01:48:48;;;;;;;;;;;18.10;99.90;;;;;;5110724;28;19924;-79
2022/06/26 01:51:14;;;;;;;;;;;18.10;99.90;;;;;;5110196;28;19924;-79
2022/06/26 01:53:39;;;;;;;;;;;18.10;99.90;;;;;;5110154;28;20384;-79
2022/06/26 01:56:05;;;;;;;;;;;18.00;99.90;;;;;;5111258;28;20014;-79
2022/06/26 01:58:30;;;;;;;;;;;18.10;99.90;;;;;;5114488;28;19923;-79
2022/06/26 02:00:56;;;;;;;;;;;18.00;99.90;;;;;;5132148;28;19968;-80
2022/06/26 02:03:22;;;;;;;;;;;18.00;99.90;;;;;;5131091;28;20300;-81
2022/06/26 02:05:48;;;;;;;;;;;18.00;99.90;;;;;;5097915;27;20372;-79
2022/06/26 02:08:14;;;;;;;;;;;18.00;99.90;;;;;;5119079;27;19920;-79
2022/06/26 02:13:36;;;;;;;;;;;17.90;99.90;;;;;;5114019;28;19963;-78
2022/06/26 02:16:06;;;;;;;;;;;17.90;99.90;;;;;;5115030;28;19920;-79
2022/06/26 02:18:33;;;;;;;;;;;17.90;99.90;;;;;;5091987;28;20361;-79
2022/06/26 02:21:05;;;;;;;;;;;17.90;99.90;;;;;;5098804;28;20342;-79
2022/06/26 02:23:31;;;;;;;;;;;18.30;99.90;;;;;;5097423;27;20002;-80
2022/06/26 02:25:58;;;;;;;;;;;17.90;99.90;;;;;;5124746;27;20019;-79
2022/06/26 02:28:23;;;;;;;;;;;17.90;99.90;;;;;;5113850;28;19927;-79
2022/06/26 02:30:50;;;;;;;;;;;17.90;99.90;;;;;;5120704;27;19919;-79
2022/06/26 02:33:15;;;;;;;;;;;17.90;99.90;;;;;;5104064;28;20399;-78
2022/06/26 02:35:41;;;;;;;;;;;17.90;99.90;;;;;;5117906;27;19919;-78
2022/06/26 02:38:06;;;;;;;;;;;17.90;99.90;;;;;;5116741;27;19927;-78
2022/06/26 02:40:32;;;;;;;;;;;17.80;99.90;;;;;;5116985;27;19924;-77
2022/06/26 02:43:04;;;;;;;;;;;17.70;99.90;;;;;;5097958;28;20269;-78
2022/06/26 02:45:30;;;;;;;;;;;17.60;99.90;;;;;;5110358;27;19920;-78
2022/06/26 02:47:55;;;;;;;;;;;17.40;99.90;;;;;;5114023;28;19919;-79
2022/06/26 02:50:21;;;;;;;;;;;17.30;99.90;;;;;;5115194;27;19926;-80
2022/06/26 02:52:47;;;;;;;;;;;17.20;99.90;;;;;;5113120;28;20281;-77
2022/06/26 02:55:13;;;;;;;;;;;17.10;99.90;;;;;;5113690;28;19923;-78
2022/06/26 02:57:39;;;;;;;;;;;17.00;99.90;;;;;;5113348;28;19939;-79
2022/06/26 03:00:11;;;;;;;;;;;17.00;99.90;;;;;;5113739;28;19931;-79
2022/06/26 03:02:37;;;;;;;;;;;16.90;99.90;;;;;;5126126;27;20368;-80
2022/06/26 03:05:03;;;;;;;;;;;16.90;99.90;;;;;;5111367;28;19965;-78
2022/06/26 03:07:29;;;;;;;;;;;16.90;99.90;;;;;;5112363;28;19927;-77
2022/06/26 03:09:55;;;;;;;;;;;16.80;99.90;;;;;;5117218;27;19976;-79
2022/06/26 03:12:21;;;;;;;;;;;16.80;99.90;;;;;;5116086;27;19923;-79
2022/06/26 03:14:47;;;;;;;;;;;16.70;99.90;;;;;;5118591;27;20260;-77
2022/06/26 03:17:13;;;;;;;;;;;16.70;99.90;;;;;;5105401;28;20015;-80
2022/06/26 03:19:38;;;;;;;;;;;16.70;99.90;;;;;;5127686;27;19963;-77
2022/06/26 03:22:04;;;;;;;;;;;16.70;99.90;;;;;;5112872;28;19919;-79
2022/06/26 03:24:30;;;;;;;;;;;16.70;99.90;;;;;;5129075;27;19941;-78
2022/06/26 03:26:55;;;;;;;;;;;16.70;99.90;;;;;;5103032;27;19920;-78
2022/06/26 03:29:21;;;;;;;;;;;16.70;99.90;;;;;;5120650;27;19927;-79
2022/06/26 03:31:46;;;;;;;;;;;16.70;99.90;;;;;;5112830;28;19927;-79
2022/06/26 03:34:12;;;;;;;;;;;16.70;99.90;;;;;;5095896;28;20015;-78
2022/06/26 03:36:40;;;;;;;;;;;16.70;99.90;;;;;;5111863;28;20369;-79
2022/06/26 03:39:06;;;;;;;;;;;16.70;99.90;;;;;;5112492;28;19935;-79
2022/06/26 03:41:32;;;;;;;;;;;16.70;99.90;;;;;;5113402;27;19985;-79
2022/06/26 03:43:57;;;;;;;;;;;16.80;99.90;;;;;;5119567;27;20006;-78
2022/06/26 03:46:23;;;;;;;;;;;16.80;99.90;;;;;;5132024;27;20318;-79
2022/06/26 03:48:51;;;;;;;;;;;16.80;99.90;;;;;;5113914;27;19920;-79
2022/06/26 03:51:17;;;;;;;;;;;16.80;99.90;;;;;;5112159;28;19926;-78
2022/06/26 03:53:43;;;;;;;;;;;16.80;99.90;;;;;;5112272;28;19920;-78
2022/06/26 03:56:08;;;;;;;;;;;16.80;99.90;;;;;;5112527;28;19923;-78
2022/06/26 03:58:35;;;;;;;;;;;16.80;99.90;;;;;;5095042;28;19946;-78
2022/06/26 04:01:01;;;;;;;;;;;16.90;99.90;;;;;;5112429;28;19963;-78
2022/06/26 04:03:30;;;;;;;;;;;16.90;99.90;;;;;;5113678;28;19951;-79
2022/06/26 04:05:56;;;;;;;;;;;16.90;99.90;;;;;;5112191;28;19966;-78
2022/06/26 04:08:21;;;;;;;;;;;16.90;99.90;;;;;;5095053;28;19919;-79
2022/06/26 04:10:47;;;;;;;;;;;16.90;99.90;;;;;;5112384;28;19927;-77
2022/06/26 04:13:13;;;;;;;;;;;16.90;99.90;;;;;;5125594;27;19959;-78
2022/06/26 04:15:39;;;;;;;;;;;16.80;99.90;;;;;;5123410;27;19923;-79
2022/06/26 04:18:05;;;;;;;;;;;16.80;99.90;;;;;;5132086;27;20029;-79
2022/06/26 04:20:30;;;;;;;;;;;16.90;99.90;;;;;;5121880;27;19923;-79
2022/06/26 04:22:57;;;;;;;;;;;16.90;99.90;;;;;;5111758;28;19931;-78
2022/06/26 04:25:23;;;;;;;;;;;16.90;99.90;;;;;;5094929;28;19955;-78
2022/06/26 04:27:49;;;;;;;;;;;16.90;99.90;;;;;;5113567;27;20404;-78
2022/06/26 04:30:14;;;;;;;;;;;17.00;99.90;;;;;;5086737;28;19920;-77
2022/06/26 04:32:40;;;;;;;;;;;17.00;99.90;;;;;;5105102;28;19990;-79
2022/06/26 04:35:09;;;;;;;;;;;17.10;99.90;;;;;;5134088;27;19919;-78
2022/06/26 04:37:36;;;;;;;;;;;17.10;99.90;;;;;;5131418;27;19930;-78
2022/06/26 04:40:01;;;;;;;;;;;17.10;99.90;;;;;;5132648;27;19999;-77
2022/06/26 04:42:27;;;;;;;;;;;17.10;99.90;;;;;;5131989;27;20054;-78
2022/06/26 04:44:52;;;;;;;;;;;17.10;99.90;;;;;;5117504;27;19941;-78
2022/06/26 04:47:18;;;;;;;;;;;17.10;99.90;;;;;;5131121;27;19920;-78
2022/06/26 04:49:43;;;;;;;;;;;17.20;99.90;;;;;;5111398;27;19927;-77
2022/06/26 04:52:09;;;;;;;;;;;17.20;99.90;;;;;;5086336;28;20278;-77
2022/06/26 04:54:35;;;;;;;;;;;17.10;99.90;;;;;;5115616;27;20011;-76
2022/06/26 04:57:03;;;;;;;;;;;17.20;99.90;;;;;;5114051;28;19920;-76
2022/06/26 04:59:29;;;;;;;;;;;17.20;99.90;;;;;;5097773;28;20423;-76
2022/06/26 05:01:55;;;;;;;;;;;17.20;99.90;;;;;;5131024;27;19919;-76
2022/06/26 05:04:20;;;;;;;;;;;17.30;99.90;;;;;;5113420;28;20283;-77
2022/06/26 05:06:46;;;;;;;;;;;17.40;99.90;;;;;;5114114;28;19919;-78
2022/06/26 05:09:11;;;;;;;;;;;17.40;99.90;;;;;;5131800;28;20010;-77
2022/06/26 05:11:37;;;;;;;;;;;17.40;99.90;;;;;;5115729;28;19930;-76
2022/06/26 05:14:02;;;;;;;;;;;17.40;99.90;;;;;;5111599;28;20337;-78
2022/06/26 05:16:28;;;;;;;;;;;17.40;99.90;;;;;;5093607;28;20376;-77
2022/06/26 05:18:54;;;;;;;;;;;17.40;99.90;;;;;;5110902;28;19947;-78
2022/06/26 05:21:19;;;;;;;;;;;17.40;99.90;;;;;;5102658;28;19920;-77
2022/06/26 05:23:45;;;;;;;;;;;17.50;99.90;;;;;;5095854;28;19939;-78
2022/06/26 05:26:10;;;;;;;;;;;17.50;99.90;;;;;;5126332;28;19920;-77
2022/06/26 05:28:36;;;;;;;;;;;17.60;99.90;;;;;;5116006;28;19923;-76
2022/06/26 05:31:01;;;;;;;;;;;17.70;99.90;;;;;;5111057;28;19946;-76
2022/06/26 05:33:30;;;;;;;;;;;17.70;99.90;;;;;;5112280;28;19920;-77
2022/06/26 05:35:55;;;;;;;;;;;17.80;99.90;;;;;;5111346;28;19926;-77
2022/06/26 05:38:21;;;;;;;;;;;17.90;99.90;;;;;;5110770;28;19924;-78
2022/06/26 05:40:47;;;;;;;;;;;18.00;99.90;;;;;;5114843;27;19923;-77
2022/06/26 05:43:12;;;;;;;;;;;18.00;99.90;;;;;;5106404;28;19965;-78
2022/06/26 05:45:38;;;;;;;;;;;18.00;99.90;;;;;;5098016;28;19926;-76
2022/06/26 05:48:09;;;;;;;;;;;18.00;99.90;;;;;;5082282;28;20497;-78
2022/06/26 05:50:38;;;;;;;;;;;17.90;99.90;;;;;;5111614;28;19980;-77
2022/06/26 05:53:03;;;;;;;;;;;17.80;99.90;;;;;;5129284;27;19919;-77
2022/06/26 05:55:29;;;;;;;;;;;17.80;99.90;;;;;;5135410;27;19954;-76
2022/06/26 05:57:55;;;;;;;;;;;17.90;99.90;;;;;;5132370;27;19983;-77
2022/06/26 06:00:21;;;;;;;;;;;17.90;99.90;;;;;;5114747;28;19976;-77
2022/06/26 06:02:46;;;;;;;;;;;18.10;99.90;;;;;;5128130;27;19923;-78
2022/06/26 06:05:12;;;;;;;;;;;18.10;99.90;;;;;;5097265;28;19990;-77
2022/06/26 06:07:38;;;;;;;;;;;18.20;99.90;;;;;;5113573;28;19920;-77
2022/06/26 06:10:09;;;;;;;;;;;18.20;99.90;;;;;;5114142;28;20105;-77
2022/06/26 06:12:35;;;;;;;;;;;18.10;99.90;;;;;;5114300;28;20443;-78
2022/06/26 06:15:01;;;;;;;;;;;18.10;99.90;;;;;;5114546;28;19923;-77
2022/06/26 06:17:36;;;;;;;;;;;18.10;99.90;;;;;;5124284;27;19923;-78
2022/06/26 06:20:06;;;;;;;;;;;18.10;99.90;;;;;;5117661;27;19930;-77
2022/06/26 06:22:33;;;;;;;;;;;18.00;99.90;;;;;;5116694;27;19920;-78
2022/06/26 06:24:59;;;;;;;;;;;18.00;99.90;;;;;;5130326;27;19920;-78
2022/06/26 06:27:25;;;;;;;;;;;18.00;99.90;;;;;;5114229;28;19923;-76
2022/06/26 06:29:51;;;;;;;;;;;18.10;99.90;;;;;;5113998;28;19927;-76
2022/06/26 06:32:17;;;;;;;;;;;18.20;99.90;;;;;;5114034;28;20288;-76
2022/06/26 06:34:43;;;;;;;;;;;18.20;99.90;;;;;;5114651;27;20361;-76
2022/06/26 06:37:08;;;;;;;;;;;18.30;99.90;;;;;;5133737;27;20052;-77
2022/06/26 06:39:34;;;;;;;;;;;18.40;99.90;;;;;;5134019;27;19931;-76
2022/06/26 06:41:59;;;;;;;;;;;18.40;99.90;;;;;;5085446;28;20269;-76
2022/06/26 06:44:27;;;;;;;;;;;18.50;99.90;;;;;;5113662;28;20262;-76
2022/06/26 06:46:53;;;;;;;;;;;18.60;99.90;;;;;;5114613;27;19926;-76
2022/06/26 06:49:18;;;;;;;;;;;18.60;99.90;;;;;;5110088;28;19919;-76
2022/06/26 06:51:44;;;;;;;;;;;18.70;99.90;;;;;;5112724;28;19926;-77
2022/06/26 06:54:09;;;;;;;;;;;18.80;99.90;;;;;;5113409;28;19926;-76
2022/06/26 06:56:35;;;;;;;;;;;19.00;99.90;;;;;;5117430;27;19926;-77
2022/06/26 06:59:01;;;;;;;;;;;19.10;99.90;;;;;;5122620;27;19927;-77
2022/06/26 07:01:27;;;;;;;;;;;19.20;99.90;;;;;;5126901;27;19939;-77
2022/06/26 07:03:52;;;;;;;;;;;19.30;99.90;;;;;;5096472;28;19994;-77
2022/06/26 07:06:18;;;;;;;;;;;19.30;99.90;;;;;;5126590;27;20390;-76
2022/06/26 07:08:44;;;;;;;;;;;19.10;99.90;;;;;;5133380;27;19987;-77
2022/06/26 07:11:09;;;;;;;;;;;19.10;99.90;;;;;;5134045;27;19920;-76
2022/06/26 07:13:35;;;;;;;;;;;19.10;99.90;;;;;;5098890;28;19923;-77
2022/06/26 07:16:02;;;;;;;;;;;19.20;99.90;;;;;;5121905;27;20288;-77
2022/06/26 07:18:28;;;;;;;;;;;19.40;99.90;;;;;;5117770;27;20292;-77
2022/06/26 07:20:54;;;;;;;;;;;19.70;99.90;;;;;;5105365;28;20374;-77
2022/06/26 07:23:19;;;;;;;;;;;20.00;99.90;;;;;;5112377;28;19957;-77
2022/06/26 07:25:45;;;;;;;;;;;20.30;99.90;;;;;;5095995;28;20011;-77
2022/06/26 07:28:12;;;;;;;;;;;20.50;99.90;;;;;;5126604;27;20394;-77
2022/06/26 07:30:38;;;;;;;;;;;20.70;99.90;;;;;;5112169;28;20006;-77
2022/06/26 07:33:04;;;;;;;;;;;20.70;99.90;;;;;;5125462;27;20044;-78
2022/06/26 07:35:30;;;;;;;;;;;20.60;99.90;;;;;;5127677;27;20296;-77
2022/06/26 07:37:56;;;;;;;;;;;20.50;99.90;;;;;;5123033;27;19996;-77
2022/06/26 07:40:21;;;;;;;;;;;20.30;99.90;;;;;;5116269;27;20359;-77
2022/06/26 07:42:47;;;;;;;;;;;20.10;99.90;;;;;;5132915;27;20375;-77
2022/06/26 07:45:12;;;;;;;;;;;20.10;99.90;;;;;;5130317;27;19943;-77
2022/06/26 07:47:38;;;;;;;;;;;20.10;99.90;;;;;;5124755;27;19927;-77
2022/06/26 07:50:04;;;;;;;;;;;20.20;99.90;;;;;;5112116;27;19982;-77
2022/06/26 07:52:29;;;;;;;;;;;20.10;99.90;;;;;;5112582;28;19927;-77
2022/06/26 07:54:55;;;;;;;;;;;20.00;99.90;;;;;;5111731;28;20388;-77
2022/06/26 07:57:20;;;;;;;;;;;19.90;99.90;;;;;;5095366;28;19920;-77
2022/06/26 07:59:46;;;;;;;;;;;19.80;99.90;;;;;;5111634;28;19993;-76
2022/06/26 08:02:13;;;;;;;;;;;19.60;99.90;;;;;;5094698;28;21300;-77
2022/06/26 08:04:39;;;;;;;;;;;19.50;99.90;;;;;;5094098;28;19958;-76
2022/06/26 08:07:05;;;;;;;;;;;19.60;99.90;;;;;;5111727;28;20402;-76
2022/06/26 08:09:30;;;;;;;;;;;19.80;99.90;;;;;;5103327;27;20353;-76
2022/06/26 08:11:56;;;;;;;;;;;20.00;99.90;;;;;;5117111;27;19929;-76
2022/06/26 08:14:22;;;;;;;;;;;20.10;99.90;;;;;;5119734;27;19920;-76
2022/06/26 08:16:47;;;;;;;;;;;20.10;99.90;;;;;;5094599;28;19926;-76
2022/06/26 08:19:13;;;;;;;;;;;20.20;99.90;;;;;;5112093;28;20028;-76
2022/06/26 08:24:23;;;;;;;;;;;20.20;99.90;;;;;;5112086;28;19924;-76
2022/06/26 08:26:48;;;;;;;;;;;20.50;99.90;;;;;;5111634;28;19920;-76
2022/06/26 08:29:14;;;;;;;;;;;20.80;99.90;;;;;;5112348;28;20314;-76
2022/06/26 08:31:39;;;;;;;;;;;21.10;99.90;;;;;;5111066;28;20002;-76
2022/06/26 08:34:05;;;;;;;;;;;21.10;99.90;;;;;;5111782;28;19976;-76
2022/06/26 08:36:31;;;;;;;;;;;21.20;99.90;;;;;;5110868;28;19924;-76
2022/06/26 08:38:56;;;;;;;;;;;21.30;99.90;;;;;;5131717;27;19935;-76
2022/06/26 08:41:26;;;;;;;;;;;21.30;99.90;;;;;;5127217;27;19919;-76
2022/06/26 08:43:52;;;;;;;;;;;21.20;99.90;;;;;;5129829;27;20064;-76
2022/06/26 08:46:21;;;;;;;;;;;20.90;99.90;;;;;;5132445;27;20411;-76
2022/06/26 08:48:47;;;;;;;;;;;20.70;99.90;;;;;;5119598;27;20338;-76
2022/06/26 08:51:13;;;;;;;;;;;20.70;99.90;;;;;;5111340;28;19927;-76
2022/06/26 08:53:40;;;;;;;;;;;20.90;99.90;;;;;;5090096;28;19928;-76
2022/06/26 08:56:06;;;;;;;;;;;21.30;99.90;;;;;;5104626;28;20006;-76
2022/06/26 08:58:32;;;;;;;;;;;21.50;99.90;;;;;;5116191;27;19994;-76
2022/06/26 09:00:57;;;;;;;;;;;21.60;99.90;;;;;;5102214;28;19962;-76
2022/06/26 09:03:23;;;;;;;;;;;21.50;99.90;;;;;;5129669;28;19927;-76
2022/06/26 09:05:49;;;;;;;;;;;21.50;99.90;;;;;;5131885;28;19950;-76
2022/06/26 09:08:18;;;;;;;;;;;21.80;99.90;;;;;;5097573;28;20311;-76
2022/06/26 09:10:48;;;;;;;;;;;22.00;99.90;;;;;;5110935;28;19927;-76
2022/06/26 09:13:13;;;;;;;;;;;22.00;99.90;;;;;;5111086;28;19963;-76
2022/06/26 09:15:40;;;;;;;;;;;21.70;99.90;;;;;;5111628;28;19970;-76
2022/06/26 09:18:07;;;;;;;;;;;21.30;99.90;;;;;;5097972;28;19931;-77
2022/06/26 09:20:34;;;;;;;;;;;21.00;99.90;;;;;;5117637;27;20293;-76
2022/06/26 09:23:01;;;;;;;;;;;20.90;99.90;;;;;;5115590;28;19969;-76
2022/06/26 09:25:36;;;;;;;;;;;20.70;99.90;;;;;;5115441;28;20322;-76
2022/06/26 09:28:13;;;;;;;;;;;20.60;99.90;;;;;;5127579;27;19998;-75
2022/06/26 09:30:58;;;;;;;;;;;20.60;99.90;;;;;;5118573;27;19927;-75
2022/06/26 09:33:25;;;;;;;;;;;20.70;99.90;;;;;;5134271;27;19919;-76
2022/06/26 09:35:52;;;;;;;;;;;20.80;99.90;;;;;;5126848;27;19920;-76
2022/06/26 09:38:18;;;;;;;;;;;20.90;99.90;;;;;;5100749;28;20027;-76
2022/06/26 09:40:54;;;;;;;;;;;21.00;99.90;;;;;;5114870;28;20325;-76
2022/06/26 09:43:24;;;;;;;;;;;21.20;99.90;;;;;;5114774;28;19935;-76
2022/06/26 09:45:51;;;;;;;;;;;21.40;99.90;;;;;;5114622;28;19919;-76
2022/06/26 09:48:17;;;;;;;;;;;21.30;99.90;;;;;;5104073;28;20007;-76
2022/06/26 09:50:43;;;;;;;;;;;21.20;99.90;;;;;;5114507;28;20007;-76
2022/06/26 09:53:09;;;;;;;;;;;21.20;99.90;;;;;;5132318;27;19919;-76
2022/06/26 09:55:34;;;;;;;;;;;21.20;99.90;;;;;;5125177;27;19965;-76
2022/06/26 09:58:01;;;;;;;;;;;21.40;99.90;;;;;;5114193;28;19959;-76
2022/06/26 10:00:26;;;;;;;;;;;21.70;99.90;;;;;;5114698;28;19973;-76
2022/06/26 10:08:22;;;;;;;;;;;22.00;99.90;;;;;;5113537;28;20365;-76
2022/06/26 10:10:48;;;;;;;;;;;22.00;99.90;;;;;;5116169;27;20013;-76
2022/06/26 10:13:14;;;;;;;;;;;21.90;99.90;;;;;;5117910;27;19919;-76
2022/06/26 10:15:43;;;;;;;;;;;21.60;99.90;;;;;;5114619;28;19926;-76
2022/06/26 10:18:19;;;;;;;;;;;21.50;99.90;;;;;;5128999;27;19919;-76
2022/06/26 10:20:45;;;;;;;;;;;21.50;99.90;;;;;;5134890;27;20305;-76
2022/06/26 10:23:11;;;;;;;;;;;21.70;99.90;;;;;;5100063;27;19927;-76
2022/06/26 10:25:36;;;;;;;;;;;21.90;99.90;;;;;;5127683;27;19924;-77
2022/06/26 10:28:02;;;;;;;;;;;21.80;99.90;;;;;;5114056;27;19924;-76
2022/06/26 10:30:29;;;;;;;;;;;21.90;99.90;;;;;;5134874;27;19961;-77
2022/06/26 10:33:14;;;;;;;;;;;22.00;99.90;;;;;;5134071;27;19920;-77
2022/06/26 10:35:45;;;;;;;;;;;22.10;99.90;;;;;;5124522;27;20198;-77
2022/06/26 10:38:37;;;;;;;;;;;22.20;99.90;;;;;;5114789;28;19927;-77
2022/06/26 10:44:04;;;;;;;;;;;22.70;99.90;;;;;;5091167;28;20295;-77
2022/06/26 10:47:00;;;;;;;;;;;22.80;99.90;;;;;;5114120;27;20052;-77
2022/06/26 10:49:25;;;;;;;;;;;22.70;99.90;;;;;;5100385;27;20015;-77
2022/06/26 10:51:52;;;;;;;;;;;22.70;99.90;;;;;;5112297;28;20050;-77
2022/06/26 10:54:25;;;;;;;;;;;22.80;99.90;;;;;;5113718;28;20265;-77
2022/06/26 10:57:03;;;;;;;;;;;23.10;99.90;;;;;;5113029;28;19966;-78
2022/06/26 10:59:28;;;;;;;;;;;23.40;99.90;;;;;;5114400;27;19977;-76
2022/06/26 11:01:54;;;;;;;;;;;23.70;99.90;;;;;;5134010;27;19920;-78
2022/06/26 11:04:19;;;;;;;;;;;23.70;99.90;;;;;;5134118;27;20380;-79
2022/06/26 11:06:45;;;;;;;;;;;23.80;99.90;;;;;;5125907;27;19967;-77
2022/06/26 11:09:11;;;;;;;;;;;23.80;99.90;;;;;;5114528;28;19919;-77
2022/06/26 11:11:36;;;;;;;;;;;23.80;99.90;;;;;;5113115;28;19940;-78
2022/06/26 11:14:06;;;;;;;;;;;23.80;99.90;;;;;;5113101;28;19965;-78
2022/06/26 11:16:41;;;;;;;;;;;23.90;99.90;;;;;;5113328;28;19930;-77
2022/06/26 11:19:07;;;;;;;;;;;23.80;99.90;;;;;;5112703;28;19972;-77
2022/06/26 11:21:34;;;;;;;;;;;23.80;99.90;;;;;;5129597;27;20291;-77
2022/06/26 11:24:00;;;;;;;;;;;23.90;99.90;;;;;;5133818;27;19976;-77
2022/06/26 11:26:25;;;;;;;;;;;24.00;99.90;;;;;;5118827;27;20363;-77
2022/06/26 11:28:56;;;;;;;;;;;24.30;99.90;;;;;;5133239;27;19957;-79
2022/06/26 11:31:24;;;;;;;;;;;24.60;99.90;;;;;;5099029;28;19919;-78
2022/06/26 11:33:49;;;;;;;;;;;24.40;99.90;;;;;;5112471;28;19927;-77
2022/06/26 11:36:16;;;;;;;;;;;24.30;99.90;;;;;;5128721;27;20321;-78
2022/06/26 11:38:51;;;;;;;;;;;24.40;99.90;;;;;;5132971;27;19970;-78
2022/06/26 11:41:16;;;;;;;;;;;24.10;99.90;;;;;;5133105;27;19924;-78
2022/06/26 11:43:46;;;;;;;;;;;24.10;99.90;;;;;;5127237;27;19968;-78
2022/06/26 11:46:11;;;;;;;;;;;23.90;99.90;;;;;;5126948;27;19926;-78
2022/06/26 11:48:37;;;;;;;;;;;23.90;99.90;;;;;;5105343;28;19927;-78
2022/06/26 11:51:03;;;;;;;;;;;24.00;99.90;;;;;;5094613;28;19920;-78
2022/06/26 11:53:29;;;;;;;;;;;24.20;99.90;;;;;;5112549;28;20035;-78
2022/06/26 11:55:56;;;;;;;;;;;24.50;99.90;;;;;;5112493;28;19919;-78
2022/06/26 11:58:23;;;;;;;;;;;24.70;99.90;;;;;;5095128;28;19924;-78
2022/06/26 12:00:49;;;;;;;;;;;24.90;99.90;;;;;;5113711;28;20280;-79
2022/06/26 12:03:15;;;;;;;;;;;25.00;99.90;;;;;;5130994;27;19919;-79
2022/06/26 12:05:42;;;;;;;;;;;25.00;99.90;;;;;;5133387;27;19919;-79
2022/06/26 12:08:17;;;;;;;;;;;25.10;99.90;;;;;;5114318;27;19982;-78
2022/06/26 12:10:46;;;;;;;;;;;25.10;99.90;;;;;;5112482;28;19923;-78
2022/06/26 12:13:20;;;;;;;;;;;25.10;99.90;;;;;;5095083;28;19930;-78
2022/06/26 12:15:45;;;;;;;;;;;24.90;99.90;;;;;;5112195;28;19931;-78
2022/06/26 12:18:11;;;;;;;;;;;24.70;99.90;;;;;;5129308;27;19924;-78
2022/06/26 12:20:38;;;;;;;;;;;24.60;99.90;;;;;;5105786;28;19949;-78
2022/06/26 12:23:03;;;;;;;;;;;24.40;99.90;;;;;;5112500;27;19972;-78
2022/06/26 12:25:31;;;;;;;;;;;24.20;99.90;;;;;;5108150;28;20323;-78
2022/06/26 12:27:57;;;;;;;;;;;24.20;99.90;;;;;;5112728;28;20284;-77
2022/06/26 12:30:28;;;;;;;;;;;24.40;99.90;;;;;;5111687;28;19927;-79
2022/06/26 12:32:58;;;;;;;;;;;24.60;99.90;;;;;;5111258;28;20045;-79
2022/06/26 12:35:24;;;;;;;;;;;24.70;99.90;;;;;;5112051;28;20288;-79
2022/06/26 12:37:50;;;;;;;;;;;24.70;99.90;;;;;;5111151;28;20295;-78
2022/06/26 12:40:16;;;;;;;;;;;24.80;99.90;;;;;;5104637;28;19919;-79
2022/06/26 12:42:41;;;;;;;;;;;24.70;99.90;;;;;;5094758;28;20356;-79
2022/06/26 12:45:08;;;;;;;;;;;24.60;99.90;;;;;;5126122;27;19965;-78
2022/06/26 12:47:33;;;;;;;;;;;24.50;99.90;;;;;;5119491;27;20010;-78
2022/06/26 12:49:59;;;;;;;;;;;24.40;99.90;;;;;;5107662;27;20387;-79
2022/06/26 12:52:25;;;;;;;;;;;24.40;99.90;;;;;;5122126;27;19923;-79
2022/06/26 12:54:50;;;;;;;;;;;24.40;99.90;;;;;;5115882;27;19919;-79
2022/06/26 12:57:16;;;;;;;;;;;24.30;99.90;;;;;;5096951;28;19924;-78
2022/06/26 12:59:41;;;;;;;;;;;24.20;99.90;;;;;;5077890;27;19973;-79
2022/06/26 13:02:07;;;;;;;;;;;24.30;99.90;;;;;;5131712;27;20431;-78
2022/06/26 13:04:33;;;;;;;;;;;24.30;99.90;;;;;;5131757;27;19926;-79
2022/06/26 13:06:58;;;;;;;;;;;24.50;99.90;;;;;;5123469;28;19934;-78
2022/06/26 13:09:24;;;;;;;;;;;24.50;99.90;;;;;;5094331;28;19919;-78
2022/06/26 13:11:50;;;;;;;;;;;24.40;99.90;;;;;;5097914;28;19924;-80
2022/06/26 13:14:16;;;;;;;;;;;24.40;99.90;;;;;;5110957;28;19969;-79
2022/06/26 13:16:42;;;;;;;;;;;24.10;99.90;;;;;;5125012;28;19920;-79
2022/06/26 13:19:13;;;;;;;;;;;23.90;99.90;;;;;;5094901;28;19924;-79
2022/06/26 13:21:39;;;;;;;;;;;23.80;99.90;;;;;;5107770;28;20332;-79
2022/06/26 13:24:05;;;;;;;;;;;23.70;99.90;;;;;;5100542;28;20361;-79
2022/06/26 13:26:32;;;;;;;;;;;23.70;99.90;;;;;;5094316;28;19920;-79
2022/06/26 13:28:57;;;;;;;;;;;23.70;99.90;;;;;;5120484;28;19930;-78
2022/06/26 13:31:25;;;;;;;;;;;23.70;99.90;;;;;;5108960;28;20291;-79
2022/06/26 13:33:51;;;;;;;;;;;23.60;99.90;;;;;;5117971;28;20291;-79
2022/06/26 13:36:17;;;;;;;;;;;23.40;99.90;;;;;;5131573;28;19930;-79
2022/06/26 13:38:44;;;;;;;;;;;23.30;99.90;;;;;;5126215;28;19931;-78
2022/06/26 13:41:09;;;;;;;;;;;23.30;99.90;;;;;;5110892;28;20049;-79
2022/06/26 13:43:35;;;;;;;;;;;23.30;99.90;;;;;;5124827;28;19961;-79
2022/06/26 13:46:00;;;;;;;;;;;23.40;99.90;;;;;;5111068;28;20020;-78
2022/06/26 13:48:29;;;;;;;;;;;23.40;99.90;;;;;;5110801;28;19923;-79
2022/06/26 13:50:55;;;;;;;;;;;23.50;99.90;;;;;;5115064;28;19920;-79
2022/06/26 13:53:20;;;;;;;;;;;23.70;99.90;;;;;;5124945;28;19924;-79
2022/06/26 13:55:49;;;;;;;;;;;23.70;99.90;;;;;;5122949;28;19920;-78
2022/06/26 13:58:15;;;;;;;;;;;23.70;99.90;;;;;;5131179;28;20015;-78
2022/06/26 14:00:41;;;;;;;;;;;23.50;99.90;;;;;;5120194;28;19999;-78
2022/06/26 14:03:06;;;;;;;;;;;23.30;99.90;;;;;;5111691;28;19955;-79
2022/06/26 14:05:32;;;;;;;;;;;23.10;99.90;;;;;;5115205;28;19941;-79
2022/06/26 14:07:57;;;;;;;;;;;22.90;99.90;;;;;;5116049;27;20037;-79
2022/06/26 14:10:23;;;;;;;;;;;22.80;99.90;;;;;;5107530;27;19927;-79
2022/06/26 14:12:48;;;;;;;;;;;22.60;99.90;;;;;;5114536;28;19927;-78
2022/06/26 14:15:14;;;;;;;;;;;22.50;99.90;;;;;;5130089;27;19920;-78
2022/06/26 14:17:40;;;;;;;;;;;22.30;99.90;;;;;;5115130;28;19920;-78
2022/06/26 14:20:06;;;;;;;;;;;22.20;99.90;;;;;;5097268;28;19951;-78
2022/06/26 14:28:00;;;;;;;;;;;21.90;99.90;;;;;;5114534;28;19920;-79
2022/06/26 14:30:26;;;;;;;;;;;21.90;99.90;;;;;;5102928;27;19919;-78
2022/06/26 14:32:51;;;;;;;;;;;21.90;99.90;;;;;;5122690;27;19919;-79